sensor_id;sensor_type;location;lat;lon;timestamp;pressure;altitude;pressure_sealevel;temperature
18219;BMP180;9234;49.344;11.120;2023-05-10T00:01:51;96807.00;;;16.80
18219;BMP180;9234;49.344;11.120;2023-05-10T00:04:19;96817.00;;;16.80
18219;BMP180;9234;49.344;11.120;2023-05-10T00:06:48;96810.00;;;16.70
18219;BMP180;9234;49.344;11.120;2023-05-10T00:09:16;96813.00;;;16.70
18219;BMP180;9234;49.344;11.120;2023-05-10T00:11:46;96805.00;;;16.70
18219;BMP180;9234;49.344;11.120;2023-05-10T00:14:14;96804.00;;;16.70
18219;BMP180;9234;49.344;11.120;2023-05-10T00:16:42;96799.00;;;16.60
18219;BMP180;9234;49.344;11.120;2023-05-10T00:19:10;96799.00;;;16.60
18219;BMP180;9234;49.344;11.120;2023-05-10T00:21:38;96801.00;;;16.60
18219;BMP180;9234;49.344;11.120;2023-05-10T00:24:07;96798.00;;;16.60
18219;BMP180;9234;49.344;11.120;2023-05-10T00:26:35;96794.00;;;16.50
18219;BMP180;9234;49.344;11.120;2023-05-10T00:29:04;96808.00;;;16.50
18219;BMP180;9234;49.344;11.120;2023-05-10T00:31:33;96789.00;;;16.50
18219;BMP180;9234;49.344;11.120;2023-05-10T00:34:01;96792.00;;;16.40
18219;BMP180;9234;49.344;11.120;2023-05-10T00:36:29;96806.00;;;16.40
18219;BMP180;9234;49.344;11.120;2023-05-10T00:38:58;96793.00;;;16.40
18219;BMP180;9234;49.344;11.120;2023-05-10T00:41:26;96800.00;;;16.40
18219;BMP180;9234;49.344;11.120;2023-05-10T00:43:54;96799.00;;;16.40
18219;BMP180;9234;49.344;11.120;2023-05-10T00:46:25;96798.00;;;16.40
18219;BMP180;9234;49.344;11.120;2023-05-10T00:48:54;96795.00;;;16.30
18219;BMP180;9234;49.344;11.120;2023-05-10T00:51:23;96797.00;;;16.30
18219;BMP180;9234;49.344;11.120;2023-05-10T00:53:51;96795.00;;;16.30
18219;BMP180;9234;49.344;11.120;2023-05-10T00:56:20;96800.00;;;16.20
18219;BMP180;9234;49.344;11.120;2023-05-10T00:58:50;96800.00;;;16.20
18219;BMP180;9234;49.344;11.120;2023-05-10T01:01:19;96811.00;;;16.20
18219;BMP180;9234;49.344;11.120;2023-05-10T01:03:48;96806.00;;;16.20
18219;BMP180;9234;49.344;11.120;2023-05-10T01:06:17;96804.00;;;16.10
18219;BMP180;9234;49.344;11.120;2023-05-10T01:08:46;96805.00;;;16.10
18219;BMP180;9234;49.344;11.120;2023-05-10T01:11:15;96796.00;;;16.10
18219;BMP180;9234;49.344;11.120;2023-05-10T01:13:52;96800.00;;;16.00
18219;BMP180;9234;49.344;11.120;2023-05-10T01:16:24;96795.00;;;16.00
18219;BMP180;9234;49.344;11.120;2023-05-10T01:18:56;96797.00;;;16.00
18219;BMP180;9234;49.344;11.120;2023-05-10T01:21:35;96788.00;;;15.90
18219;BMP180;9234;49.344;11.120;2023-05-10T01:27:56;96787.00;;;15.90
18219;BMP180;9234;49.344;11.120;2023-05-10T01:31:22;96801.00;;;15.90
18219;BMP180;9234;49.344;11.120;2023-05-10T01:34:02;96790.00;;;15.80
18219;BMP180;9234;49.344;11.120;2023-05-10T01:36:43;96808.00;;;15.80
18219;BMP180;9234;49.344;11.120;2023-05-10T01:39:23;96792.00;;;15.80
18219;BMP180;9234;49.344;11.120;2023-05-10T01:41:59;96802.00;;;15.80
18219;BMP180;9234;49.344;11.120;2023-05-10T01:44:37;96795.00;;;15.70
18219;BMP180;9234;49.344;11.120;2023-05-10T01:47:12;96798.00;;;15.70
18219;BMP180;9234;49.344;11.120;2023-05-10T01:49:47;96795.00;;;15.70
18219;BMP180;9234;49.344;11.120;2023-05-10T01:52:19;96792.00;;;15.70
18219;BMP180;9234;49.344;11.120;2023-05-10T01:54:55;96797.00;;;15.80
18219;BMP180;9234;49.344;11.120;2023-05-10T01:57:28;96801.00;;;15.80
18219;BMP180;9234;49.344;11.120;2023-05-10T02:00:01;96794.00;;;15.80
18219;BMP180;9234;49.344;11.120;2023-05-10T02:02:45;96807.00;;;15.80
18219;BMP180;9234;49.344;11.120;2023-05-10T02:05:16;96803.00;;;15.80
18219;BMP180;9234;49.344;11.120;2023-05-10T02:07:46;96805.00;;;15.80
18219;BMP180;9234;49.344;11.120;2023-05-10T02:10:16;96813.00;;;15.80
18219;BMP180;9234;49.344;11.120;2023-05-10T02:12:48;96812.00;;;15.80
18219;BMP180;9234;49.344;11.120;2023-05-10T02:15:23;96806.00;;;15.80
18219;BMP180;9234;49.344;11.120;2023-05-10T02:17:54;96801.00;;;15.80
18219;BMP180;9234;49.344;11.120;2023-05-10T02:20:26;96813.00;;;15.70
18219;BMP180;9234;49.344;11.120;2023-05-10T02:22:57;96796.00;;;15.70
18219;BMP180;9234;49.344;11.120;2023-05-10T02:25:26;96794.00;;;15.70
18219;BMP180;9234;49.344;11.120;2023-05-10T02:28:00;96797.00;;;15.70
18219;BMP180;9234;49.344;11.120;2023-05-10T02:30:32;96811.00;;;15.70
18219;BMP180;9234;49.344;11.120;2023-05-10T02:33:01;96800.00;;;15.70
18219;BMP180;9234;49.344;11.120;2023-05-10T02:35:33;96801.00;;;15.70
18219;BMP180;9234;49.344;11.120;2023-05-10T02:38:04;96794.00;;;15.70
18219;BMP180;9234;49.344;11.120;2023-05-10T02:40:33;96795.00;;;15.70
18219;BMP180;9234;49.344;11.120;2023-05-10T02:43:02;96805.00;;;15.70
18219;BMP180;9234;49.344;11.120;2023-05-10T02:45:34;96799.00;;;15.70
18219;BMP180;9234;49.344;11.120;2023-05-10T02:48:03;96787.00;;;15.70
18219;BMP180;9234;49.344;11.120;2023-05-10T02:50:35;96799.00;;;15.70
18219;BMP180;9234;49.344;11.120;2023-05-10T02:53:13;96795.00;;;15.70
18219;BMP180;9234;49.344;11.120;2023-05-10T02:55:49;96796.00;;;15.80
18219;BMP180;9234;49.344;11.120;2023-05-10T02:58:18;96800.00;;;15.80
18219;BMP180;9234;49.344;11.120;2023-05-10T03:00:47;96798.00;;;15.80
18219;BMP180;9234;49.344;11.120;2023-05-10T03:03:16;96792.00;;;15.80
18219;BMP180;9234;49.344;11.120;2023-05-10T03:05:45;96796.00;;;15.80
18219;BMP180;9234;49.344;11.120;2023-05-10T03:08:13;96798.00;;;15.90
18219;BMP180;9234;49.344;11.120;2023-05-10T03:11:10;96790.00;;;15.90
18219;BMP180;9234;49.344;11.120;2023-05-10T03:13:56;96805.00;;;15.90
18219;BMP180;9234;49.344;11.120;2023-05-10T03:16:41;96810.00;;;15.90
18219;BMP180;9234;49.344;11.120;2023-05-10T03:19:17;96818.00;;;15.80
18219;BMP180;9234;49.344;11.120;2023-05-10T03:21:52;96809.00;;;15.80
18219;BMP180;9234;49.344;11.120;2023-05-10T03:24:25;96811.00;;;15.70
18219;BMP180;9234;49.344;11.120;2023-05-10T03:27:00;96811.00;;;15.70
18219;BMP180;9234;49.344;11.120;2023-05-10T03:29:31;96806.00;;;15.70
18219;BMP180;9234;49.344;11.120;2023-05-10T03:32:00;96826.00;;;15.70
18219;BMP180;9234;49.344;11.120;2023-05-10T03:34:30;96815.00;;;15.70
18219;BMP180;9234;49.344;11.120;2023-05-10T03:37:00;96829.00;;;15.70
18219;BMP180;9234;49.344;11.120;2023-05-10T03:39:30;96829.00;;;15.60
18219;BMP180;9234;49.344;11.120;2023-05-10T03:42:00;96823.00;;;15.60
18219;BMP180;9234;49.344;11.120;2023-05-10T03:44:30;96820.00;;;15.60
18219;BMP180;9234;49.344;11.120;2023-05-10T03:46:58;96829.00;;;15.60
18219;BMP180;9234;49.344;11.120;2023-05-10T03:49:26;96843.00;;;15.60
18219;BMP180;9234;49.344;11.120;2023-05-10T03:51:55;96831.00;;;15.60
18219;BMP180;9234;49.344;11.120;2023-05-10T03:54:24;96836.00;;;15.50
18219;BMP180;9234;49.344;11.120;2023-05-10T03:56:53;96835.00;;;15.50
18219;BMP180;9234;49.344;11.120;2023-05-10T03:59:21;96837.00;;;15.50
18219;BMP180;9234;49.344;11.120;2023-05-10T04:01:51;96833.00;;;15.50
18219;BMP180;9234;49.344;11.120;2023-05-10T04:04:19;96848.00;;;15.50
18219;BMP180;9234;49.344;11.120;2023-05-10T04:06:49;96848.00;;;15.50
18219;BMP180;9234;49.344;11.120;2023-05-10T04:09:19;96845.00;;;15.50
18219;BMP180;9234;49.344;11.120;2023-05-10T04:11:48;96856.00;;;15.50
18219;BMP180;9234;49.344;11.120;2023-05-10T04:14:16;96849.00;;;15.50
18219;BMP180;9234;49.344;11.120;2023-05-10T04:16:44;96853.00;;;15.50
18219;BMP180;9234;49.344;11.120;2023-05-10T04:19:13;96863.00;;;15.50
18219;BMP180;9234;49.344;11.120;2023-05-10T04:21:41;96862.00;;;15.50
18219;BMP180;9234;49.344;11.120;2023-05-10T04:24:09;96853.00;;;15.40
18219;BMP180;9234;49.344;11.120;2023-05-10T04:26:39;96861.00;;;15.40
18219;BMP180;9234;49.344;11.120;2023-05-10T04:29:08;96860.00;;;15.40
18219;BMP180;9234;49.344;11.120;2023-05-10T04:31:36;96871.00;;;15.40
18219;BMP180;9234;49.344;11.120;2023-05-10T04:34:05;96867.00;;;15.40
18219;BMP180;9234;49.344;11.120;2023-05-10T04:36:33;96863.00;;;15.30
18219;BMP180;9234;49.344;11.120;2023-05-10T04:39:03;96866.00;;;15.30
18219;BMP180;9234;49.344;11.120;2023-05-10T04:41:31;96863.00;;;15.30
18219;BMP180;9234;49.344;11.120;2023-05-10T04:43:59;96866.00;;;15.30
18219;BMP180;9234;49.344;11.120;2023-05-10T04:46:29;96881.00;;;15.40
18219;BMP180;9234;49.344;11.120;2023-05-10T04:48:57;96874.00;;;15.40
18219;BMP180;9234;49.344;11.120;2023-05-10T04:51:25;96892.00;;;15.40
18219;BMP180;9234;49.344;11.120;2023-05-10T04:53:53;96889.00;;;15.40
18219;BMP180;9234;49.344;11.120;2023-05-10T04:56:32;96909.00;;;15.40
18219;BMP180;9234;49.344;11.120;2023-05-10T04:59:00;96902.00;;;15.40
18219;BMP180;9234;49.344;11.120;2023-05-10T05:01:30;96903.00;;;15.50
18219;BMP180;9234;49.344;11.120;2023-05-10T05:03:59;96909.00;;;15.50
18219;BMP180;9234;49.344;11.120;2023-05-10T05:06:27;96919.00;;;15.50
18219;BMP180;9234;49.344;11.120;2023-05-10T05:08:55;96915.00;;;15.50
18219;BMP180;9234;49.344;11.120;2023-05-10T05:11:23;96916.00;;;15.50
18219;BMP180;9234;49.344;11.120;2023-05-10T05:13:52;96925.00;;;15.40
18219;BMP180;9234;49.344;11.120;2023-05-10T05:16:20;96918.00;;;15.40
18219;BMP180;9234;49.344;11.120;2023-05-10T05:18:50;96926.00;;;15.40
18219;BMP180;9234;49.344;11.120;2023-05-10T05:21:19;96928.00;;;15.40
18219;BMP180;9234;49.344;11.120;2023-05-10T05:23:48;96927.00;;;15.30
18219;BMP180;9234;49.344;11.120;2023-05-10T05:26:16;96919.00;;;15.30
18219;BMP180;9234;49.344;11.120;2023-05-10T05:28:44;96926.00;;;15.30
18219;BMP180;9234;49.344;11.120;2023-05-10T05:31:12;96925.00;;;15.30
18219;BMP180;9234;49.344;11.120;2023-05-10T05:33:40;96918.00;;;15.30
18219;BMP180;9234;49.344;11.120;2023-05-10T05:36:10;96930.00;;;15.30
18219;BMP180;9234;49.344;11.120;2023-05-10T05:38:38;96935.00;;;15.40
18219;BMP180;9234;49.344;11.120;2023-05-10T05:41:06;96930.00;;;15.40
18219;BMP180;9234;49.344;11.120;2023-05-10T05:43:34;96925.00;;;15.50
18219;BMP180;9234;49.344;11.120;2023-05-10T05:46:05;96931.00;;;15.50
18219;BMP180;9234;49.344;11.120;2023-05-10T05:48:33;96931.00;;;15.50
18219;BMP180;9234;49.344;11.120;2023-05-10T05:51:01;96940.00;;;15.60
18219;BMP180;9234;49.344;11.120;2023-05-10T05:53:34;96939.00;;;15.60
18219;BMP180;9234;49.344;11.120;2023-05-10T05:56:03;96938.00;;;15.60
18219;BMP180;9234;49.344;11.120;2023-05-10T05:58:31;96951.00;;;15.70
18219;BMP180;9234;49.344;11.120;2023-05-10T06:00:59;96952.00;;;15.80
18219;BMP180;9234;49.344;11.120;2023-05-10T06:03:27;96955.00;;;15.80
18219;BMP180;9234;49.344;11.120;2023-05-10T06:05:56;96953.00;;;15.80
18219;BMP180;9234;49.344;11.120;2023-05-10T06:08:24;96962.00;;;15.90
18219;BMP180;9234;49.344;11.120;2023-05-10T06:10:53;96965.00;;;15.90
18219;BMP180;9234;49.344;11.120;2023-05-10T06:13:22;96961.00;;;16.00
18219;BMP180;9234;49.344;11.120;2023-05-10T06:15:50;96975.00;;;16.00
18219;BMP180;9234;49.344;11.120;2023-05-10T06:18:18;96973.00;;;16.00
18219;BMP180;9234;49.344;11.120;2023-05-10T06:20:46;96976.00;;;16.10
18219;BMP180;9234;49.344;11.120;2023-05-10T06:23:14;96970.00;;;16.10
18219;BMP180;9234;49.344;11.120;2023-05-10T06:25:43;96986.00;;;16.20
18219;BMP180;9234;49.344;11.120;2023-05-10T06:28:12;96984.00;;;16.20
18219;BMP180;9234;49.344;11.120;2023-05-10T06:30:40;96987.00;;;16.30
18219;BMP180;9234;49.344;11.120;2023-05-10T06:33:08;96980.00;;;16.30
18219;BMP180;9234;49.344;11.120;2023-05-10T06:35:37;96987.00;;;16.50
18219;BMP180;9234;49.344;11.120;2023-05-10T06:38:05;96983.00;;;16.60
18219;BMP180;9234;49.344;11.120;2023-05-10T06:40:34;96996.00;;;16.70
18219;BMP180;9234;49.344;11.120;2023-05-10T06:43:02;96981.00;;;16.80
18219;BMP180;9234;49.344;11.120;2023-05-10T06:45:32;96993.00;;;16.80
18219;BMP180;9234;49.344;11.120;2023-05-10T06:48:00;97004.00;;;16.80
18219;BMP180;9234;49.344;11.120;2023-05-10T06:50:28;97003.00;;;16.80
18219;BMP180;9234;49.344;11.120;2023-05-10T06:52:56;96996.00;;;16.80
18219;BMP180;9234;49.344;11.120;2023-05-10T06:55:25;96997.00;;;16.80
18219;BMP180;9234;49.344;11.120;2023-05-10T06:57:53;96988.00;;;16.80
18219;BMP180;9234;49.344;11.120;2023-05-10T07:00:22;96992.00;;;16.80
18219;BMP180;9234;49.344;11.120;2023-05-10T07:02:51;96992.00;;;16.90
18219;BMP180;9234;49.344;11.120;2023-05-10T07:05:20;97001.00;;;16.90
18219;BMP180;9234;49.344;11.120;2023-05-10T07:07:48;96997.00;;;17.00
18219;BMP180;9234;49.344;11.120;2023-05-10T07:10:16;97005.00;;;17.00
18219;BMP180;9234;49.344;11.120;2023-05-10T07:12:44;97007.00;;;17.00
18219;BMP180;9234;49.344;11.120;2023-05-10T07:15:13;97002.00;;;17.00
18219;BMP180;9234;49.344;11.120;2023-05-10T07:17:43;97015.00;;;17.00
18219;BMP180;9234;49.344;11.120;2023-05-10T07:20:14;97006.00;;;17.10
18219;BMP180;9234;49.344;11.120;2023-05-10T07:22:42;97017.00;;;17.20
18219;BMP180;9234;49.344;11.120;2023-05-10T07:25:10;97009.00;;;17.10
18219;BMP180;9234;49.344;11.120;2023-05-10T07:27:38;97018.00;;;17.20
18219;BMP180;9234;49.344;11.120;2023-05-10T07:30:08;97002.00;;;17.20
18219;BMP180;9234;49.344;11.120;2023-05-10T07:32:36;97018.00;;;17.30
18219;BMP180;9234;49.344;11.120;2023-05-10T07:35:07;97028.00;;;17.30
18219;BMP180;9234;49.344;11.120;2023-05-10T07:37:37;97026.00;;;17.40
18219;BMP180;9234;49.344;11.120;2023-05-10T07:40:07;97031.00;;;17.40
18219;BMP180;9234;49.344;11.120;2023-05-10T07:42:35;97028.00;;;17.30
18219;BMP180;9234;49.344;11.120;2023-05-10T07:45:05;97037.00;;;17.30
18219;BMP180;9234;49.344;11.120;2023-05-10T07:47:33;97041.00;;;17.40
18219;BMP180;9234;49.344;11.120;2023-05-10T07:50:01;97037.00;;;17.50
18219;BMP180;9234;49.344;11.120;2023-05-10T07:52:29;97034.00;;;17.40
18219;BMP180;9234;49.344;11.120;2023-05-10T07:54:59;97037.00;;;17.40
18219;BMP180;9234;49.344;11.120;2023-05-10T07:57:27;97033.00;;;17.50
18219;BMP180;9234;49.344;11.120;2023-05-10T07:59:55;97033.00;;;17.50
18219;BMP180;9234;49.344;11.120;2023-05-10T08:02:23;97032.00;;;17.50
18219;BMP180;9234;49.344;11.120;2023-05-10T08:04:52;97036.00;;;17.60
18219;BMP180;9234;49.344;11.120;2023-05-10T08:07:20;97044.00;;;17.50
18219;BMP180;9234;49.344;11.120;2023-05-10T08:09:48;97035.00;;;17.50
18219;BMP180;9234;49.344;11.120;2023-05-10T08:12:18;97052.00;;;17.50
18219;BMP180;9234;49.344;11.120;2023-05-10T08:14:46;97043.00;;;17.50
18219;BMP180;9234;49.344;11.120;2023-05-10T08:17:14;97037.00;;;17.50
18219;BMP180;9234;49.344;11.120;2023-05-10T08:19:44;97042.00;;;17.50
18219;BMP180;9234;49.344;11.120;2023-05-10T08:22:12;97039.00;;;17.60
18219;BMP180;9234;49.344;11.120;2023-05-10T08:24:40;97042.00;;;17.80
18219;BMP180;9234;49.344;11.120;2023-05-10T08:27:09;97047.00;;;18.00
18219;BMP180;9234;49.344;11.120;2023-05-10T08:29:38;97040.00;;;18.20
18219;BMP180;9234;49.344;11.120;2023-05-10T08:32:16;97050.00;;;18.40
18219;BMP180;9234;49.344;11.120;2023-05-10T08:34:44;97046.00;;;18.70
18219;BMP180;9234;49.344;11.120;2023-05-10T08:37:12;97057.00;;;18.70
18219;BMP180;9234;49.344;11.120;2023-05-10T08:39:40;97047.00;;;18.90
18219;BMP180;9234;49.344;11.120;2023-05-10T08:42:09;97050.00;;;18.90
18219;BMP180;9234;49.344;11.120;2023-05-10T08:44:39;97046.00;;;18.90
18219;BMP180;9234;49.344;11.120;2023-05-10T08:47:10;97054.00;;;18.90
18219;BMP180;9234;49.344;11.120;2023-05-10T08:49:40;97047.00;;;18.80
18219;BMP180;9234;49.344;11.120;2023-05-10T08:52:11;97063.00;;;18.70
18219;BMP180;9234;49.344;11.120;2023-05-10T08:54:41;97052.00;;;18.60
18219;BMP180;9234;49.344;11.120;2023-05-10T08:57:11;97067.00;;;18.50
18219;BMP180;9234;49.344;11.120;2023-05-10T08:59:40;97056.00;;;18.50
18219;BMP180;9234;49.344;11.120;2023-05-10T09:02:11;97059.00;;;18.40
18219;BMP180;9234;49.344;11.120;2023-05-10T09:04:44;97056.00;;;18.30
18219;BMP180;9234;49.344;11.120;2023-05-10T09:07:13;97058.00;;;18.40
18219;BMP180;9234;49.344;11.120;2023-05-10T09:09:41;97064.00;;;18.40
18219;BMP180;9234;49.344;11.120;2023-05-10T09:12:10;97068.00;;;18.60
18219;BMP180;9234;49.344;11.120;2023-05-10T09:14:40;97068.00;;;18.80
18219;BMP180;9234;49.344;11.120;2023-05-10T09:17:09;97080.00;;;19.00
18219;BMP180;9234;49.344;11.120;2023-05-10T09:19:38;97069.00;;;19.10
18219;BMP180;9234;49.344;11.120;2023-05-10T09:22:06;97065.00;;;19.20
18219;BMP180;9234;49.344;11.120;2023-05-10T09:24:34;97074.00;;;19.30
18219;BMP180;9234;49.344;11.120;2023-05-10T09:27:03;97066.00;;;19.20
18219;BMP180;9234;49.344;11.120;2023-05-10T09:29:42;97078.00;;;19.20
18219;BMP180;9234;49.344;11.120;2023-05-10T09:32:13;97064.00;;;19.30
18219;BMP180;9234;49.344;11.120;2023-05-10T09:34:42;97075.00;;;19.30
18219;BMP180;9234;49.344;11.120;2023-05-10T09:37:11;97068.00;;;19.50
18219;BMP180;9234;49.344;11.120;2023-05-10T09:39:40;97064.00;;;19.90
18219;BMP180;9234;49.344;11.120;2023-05-10T09:42:09;97069.00;;;20.30
18219;BMP180;9234;49.344;11.120;2023-05-10T09:44:39;97062.00;;;20.50
18219;BMP180;9234;49.344;11.120;2023-05-10T09:47:17;97081.00;;;20.50
18219;BMP180;9234;49.344;11.120;2023-05-10T09:49:49;97083.00;;;20.30
18219;BMP180;9234;49.344;11.120;2023-05-10T09:52:18;97069.00;;;20.20
18219;BMP180;9234;49.344;11.120;2023-05-10T09:54:53;97081.00;;;20.10
18219;BMP180;9234;49.344;11.120;2023-05-10T09:57:23;97075.00;;;20.10
18219;BMP180;9234;49.344;11.120;2023-05-10T09:59:53;97077.00;;;20.20
18219;BMP180;9234;49.344;11.120;2023-05-10T10:02:28;97077.00;;;20.30
18219;BMP180;9234;49.344;11.120;2023-05-10T10:04:57;97060.00;;;20.40
18219;BMP180;9234;49.344;11.120;2023-05-10T10:07:26;97062.00;;;20.60
18219;BMP180;9234;49.344;11.120;2023-05-10T10:09:55;97061.00;;;20.80
18219;BMP180;9234;49.344;11.120;2023-05-10T10:12:23;97067.00;;;20.70
18219;BMP180;9234;49.344;11.120;2023-05-10T10:14:55;97068.00;;;20.50
18219;BMP180;9234;49.344;11.120;2023-05-10T10:17:27;97063.00;;;20.30
18219;BMP180;9234;49.344;11.120;2023-05-10T10:19:57;97079.00;;;20.00
18219;BMP180;9234;49.344;11.120;2023-05-10T10:22:26;97073.00;;;19.80
18219;BMP180;9234;49.344;11.120;2023-05-10T10:24:54;97077.00;;;19.60
18219;BMP180;9234;49.344;11.120;2023-05-10T10:27:34;97078.00;;;19.40
18219;BMP180;9234;49.344;11.120;2023-05-10T10:30:20;97077.00;;;19.30
18219;BMP180;9234;49.344;11.120;2023-05-10T10:33:13;97081.00;;;19.20
18219;BMP180;9234;49.344;11.120;2023-05-10T10:35:55;97062.00;;;19.10
18219;BMP180;9234;49.344;11.120;2023-05-10T10:38:25;97068.00;;;19.10
18219;BMP180;9234;49.344;11.120;2023-05-10T10:41:10;97074.00;;;19.20
18219;BMP180;9234;49.344;11.120;2023-05-10T10:43:38;97070.00;;;19.30
18219;BMP180;9234;49.344;11.120;2023-05-10T10:46:12;97075.00;;;19.50
18219;BMP180;9234;49.344;11.120;2023-05-10T10:48:47;97072.00;;;19.80
18219;BMP180;9234;49.344;11.120;2023-05-10T10:51:15;97066.00;;;20.10
18219;BMP180;9234;49.344;11.120;2023-05-10T10:53:43;97061.00;;;20.30
18219;BMP180;9234;49.344;11.120;2023-05-10T10:56:13;97065.00;;;20.60
18219;BMP180;9234;49.344;11.120;2023-05-10T10:58:49;97073.00;;;20.70
18219;BMP180;9234;49.344;11.120;2023-05-10T11:01:20;97071.00;;;20.70
18219;BMP180;9234;49.344;11.120;2023-05-10T11:04:17;97067.00;;;20.50
18219;BMP180;9234;49.344;11.120;2023-05-10T11:06:46;97058.00;;;20.30
18219;BMP180;9234;49.344;11.120;2023-05-10T11:09:14;97067.00;;;20.10
18219;BMP180;9234;49.344;11.120;2023-05-10T11:11:51;97064.00;;;19.90
18219;BMP180;9234;49.344;11.120;2023-05-10T11:14:22;97070.00;;;19.70
18219;BMP180;9234;49.344;11.120;2023-05-10T11:16:52;97063.00;;;19.50
18219;BMP180;9234;49.344;11.120;2023-05-10T11:19:20;97059.00;;;19.50
18219;BMP180;9234;49.344;11.120;2023-05-10T11:21:51;97060.00;;;19.40
18219;BMP180;9234;49.344;11.120;2023-05-10T11:24:25;97080.00;;;19.30
18219;BMP180;9234;49.344;11.120;2023-05-10T11:26:55;97060.00;;;19.30
18219;BMP180;9234;49.344;11.120;2023-05-10T11:29:23;97063.00;;;19.20
18219;BMP180;9234;49.344;11.120;2023-05-10T11:31:57;97079.00;;;19.10
18219;BMP180;9234;49.344;11.120;2023-05-10T11:34:28;97074.00;;;19.10
18219;BMP180;9234;49.344;11.120;2023-05-10T11:36:57;97061.00;;;19.20
18219;BMP180;9234;49.344;11.120;2023-05-10T11:39:27;97079.00;;;19.40
18219;BMP180;9234;49.344;11.120;2023-05-10T11:41:56;97070.00;;;19.50
18219;BMP180;9234;49.344;11.120;2023-05-10T11:44:29;97079.00;;;19.50
18219;BMP180;9234;49.344;11.120;2023-05-10T11:47:00;97068.00;;;19.60
18219;BMP180;9234;49.344;11.120;2023-05-10T11:49:29;97069.00;;;19.70
18219;BMP180;9234;49.344;11.120;2023-05-10T11:52:04;97086.00;;;19.80
18219;BMP180;9234;49.344;11.120;2023-05-10T11:54:33;97075.00;;;19.90
18219;BMP180;9234;49.344;11.120;2023-05-10T11:57:03;97089.00;;;19.90
18219;BMP180;9234;49.344;11.120;2023-05-10T11:59:31;97076.00;;;19.80
18219;BMP180;9234;49.344;11.120;2023-05-10T12:02:01;97071.00;;;19.80
18219;BMP180;9234;49.344;11.120;2023-05-10T12:04:30;97077.00;;;19.80
18219;BMP180;9234;49.344;11.120;2023-05-10T12:06:59;97083.00;;;19.70
18219;BMP180;9234;49.344;11.120;2023-05-10T12:09:28;97083.00;;;19.70
18219;BMP180;9234;49.344;11.120;2023-05-10T12:12:10;97075.00;;;19.50
18219;BMP180;9234;49.344;11.120;2023-05-10T12:14:38;97088.00;;;19.30
18219;BMP180;9234;49.344;11.120;2023-05-10T12:17:11;97085.00;;;19.30
18219;BMP180;9234;49.344;11.120;2023-05-10T12:19:41;97079.00;;;19.30
18219;BMP180;9234;49.344;11.120;2023-05-10T12:22:10;97086.00;;;19.30
18219;BMP180;9234;49.344;11.120;2023-05-10T12:24:38;97076.00;;;19.30
18219;BMP180;9234;49.344;11.120;2023-05-10T12:27:08;97086.00;;;19.30
18219;BMP180;9234;49.344;11.120;2023-05-10T12:29:41;97079.00;;;19.30
18219;BMP180;9234;49.344;11.120;2023-05-10T12:32:13;97085.00;;;19.40
18219;BMP180;9234;49.344;11.120;2023-05-10T12:34:41;97086.00;;;19.30
18219;BMP180;9234;49.344;11.120;2023-05-10T12:37:09;97086.00;;;19.30
18219;BMP180;9234;49.344;11.120;2023-05-10T12:39:39;97084.00;;;19.20
18219;BMP180;9234;49.344;11.120;2023-05-10T12:42:09;97080.00;;;19.20
18219;BMP180;9234;49.344;11.120;2023-05-10T12:44:39;97077.00;;;19.20
18219;BMP180;9234;49.344;11.120;2023-05-10T12:47:07;97081.00;;;19.20
18219;BMP180;9234;49.344;11.120;2023-05-10T12:49:37;97075.00;;;19.30
18219;BMP180;9234;49.344;11.120;2023-05-10T12:52:06;97086.00;;;19.30
18219;BMP180;9234;49.344;11.120;2023-05-10T12:54:34;97078.00;;;19.30
18219;BMP180;9234;49.344;11.120;2023-05-10T12:57:02;97083.00;;;19.40
18219;BMP180;9234;49.344;11.120;2023-05-10T12:59:31;97071.00;;;19.50
18219;BMP180;9234;49.344;11.120;2023-05-10T13:02:01;97076.00;;;19.50
18219;BMP180;9234;49.344;11.120;2023-05-10T13:04:29;97080.00;;;19.60
18219;BMP180;9234;49.344;11.120;2023-05-10T13:06:58;97085.00;;;19.70
18219;BMP180;9234;49.344;11.120;2023-05-10T13:09:27;97086.00;;;19.80
18219;BMP180;9234;49.344;11.120;2023-05-10T13:11:56;97087.00;;;19.80
18219;BMP180;9234;49.344;11.120;2023-05-10T13:14:25;97080.00;;;19.80
18219;BMP180;9234;49.344;11.120;2023-05-10T13:16:53;97095.00;;;19.70
18219;BMP180;9234;49.344;11.120;2023-05-10T13:19:21;97091.00;;;19.50
18219;BMP180;9234;49.344;11.120;2023-05-10T13:21:49;97088.00;;;19.50
18219;BMP180;9234;49.344;11.120;2023-05-10T13:24:19;97085.00;;;19.40
18219;BMP180;9234;49.344;11.120;2023-05-10T13:26:48;97081.00;;;19.40
18219;BMP180;9234;49.344;11.120;2023-05-10T13:29:16;97081.00;;;19.40
18219;BMP180;9234;49.344;11.120;2023-05-10T13:31:45;97083.00;;;19.50
18219;BMP180;9234;49.344;11.120;2023-05-10T13:34:14;97087.00;;;19.60
18219;BMP180;9234;49.344;11.120;2023-05-10T13:36:42;97086.00;;;19.60
18219;BMP180;9234;49.344;11.120;2023-05-10T13:39:10;97083.00;;;19.50
18219;BMP180;9234;49.344;11.120;2023-05-10T13:41:41;97073.00;;;19.60
18219;BMP180;9234;49.344;11.120;2023-05-10T13:44:11;97076.00;;;19.60
18219;BMP180;9234;49.344;11.120;2023-05-10T13:46:42;97074.00;;;19.60
18219;BMP180;9234;49.344;11.120;2023-05-10T13:49:10;97085.00;;;19.70
18219;BMP180;9234;49.344;11.120;2023-05-10T13:51:38;97081.00;;;19.90
18219;BMP180;9234;49.344;11.120;2023-05-10T13:54:06;97076.00;;;20.00
18219;BMP180;9234;49.344;11.120;2023-05-10T13:56:36;97078.00;;;20.20
18219;BMP180;9234;49.344;11.120;2023-05-10T13:59:05;97075.00;;;20.40
18219;BMP180;9234;49.344;11.120;2023-05-10T14:01:34;97076.00;;;20.50
18219;BMP180;9234;49.344;11.120;2023-05-10T14:04:05;97076.00;;;20.50
18219;BMP180;9234;49.344;11.120;2023-05-10T14:06:37;97080.00;;;20.50
18219;BMP180;9234;49.344;11.120;2023-05-10T14:09:06;97076.00;;;20.40
18219;BMP180;9234;49.344;11.120;2023-05-10T14:11:34;97082.00;;;20.30
18219;BMP180;9234;49.344;11.120;2023-05-10T14:14:02;97079.00;;;20.20
18219;BMP180;9234;49.344;11.120;2023-05-10T14:16:32;97082.00;;;20.10
18219;BMP180;9234;49.344;11.120;2023-05-10T14:19:03;97089.00;;;20.10
18219;BMP180;9234;49.344;11.120;2023-05-10T14:21:32;97093.00;;;20.30
18219;BMP180;9234;49.344;11.120;2023-05-10T14:24:00;97088.00;;;20.40
18219;BMP180;9234;49.344;11.120;2023-05-10T14:26:29;97062.00;;;20.40
18219;BMP180;9234;49.344;11.120;2023-05-10T14:28:58;97073.00;;;20.50
18219;BMP180;9234;49.344;11.120;2023-05-10T14:31:26;97078.00;;;20.70